Latest Weather Observations for Bendigo

IDV60801

Issued at 10:32 am EDT Monday 27 February 2017 (issued every 30 minutes, with the page automatically refreshed every 10 minutes)

About weather observations | Map of weather stations | Latest weather observations for VIC | Other Formats
Station Details ID: 081123 Name: BENDIGO AIRPORT Lat: -36.74 Lon: 144.33 Height: 208.0 m
Data from the previous 72 hours. | See also: Recent months at Bendigo
Date/Time
EDT
Temp
°C
App
Temp
°C
Dew
Point
°C
Rel
Hum
%
Delta-T
°C
Wind Press
QNH
hPa
Press
MSL
hPa
Rain since
9am
mm
Dir  Spd
km/h
Gust
km/h
Spd
kts
Gust
kts
27/10:30am 23.4 20.7 9.0 40 7.8 ENE 13 20 7 11 1023.9 1023.1 0.0
27/10:00am 22.5 19.6 9.6 44 7.0 ENE 15 22 8 12 1024.0 1023.2 0.0
27/09:30am 21.5 18.2 9.4 46 6.5 E 17 24 9 13 1023.9 1023.1 0.0
27/09:00am 20.5 18.0 9.7 50 5.8 ESE 13 20 7 11 1023.9 1023.1 0.0
27/08:30am 19.3 16.6 10.3 56 4.9 SE 15 20 8 11 1023.8 1023.0 0.0
27/08:00am 17.9 15.8 11.0 64 3.7 SE 13 15 7 8 1023.6 1022.8 0.0
27/07:31am 16.7 14.9 11.0 69 3.1 SE 11 15 6 8 1023.3 1022.5 0.0
27/07:30am 16.6 14.4 10.9 69 3.1 SE 13 15 7 8 1023.3 1022.5 0.0
27/07:15am 15.5 13.7 10.9 74 2.5 SSE 11 13 6 7 1023.1 1022.3 0.0
27/07:00am 15.0 13.2 10.8 76 2.2 SSE 11 13 6 7 1022.9 1022.1 0.0
27/06:30am 14.9 13.1 10.9 77 2.1 SSE 11 13 6 7 1022.4 1021.6 0.0
27/06:00am 15.9 15.0 11.3 74 2.5 SSE 7 9 4 5 1022.1 1021.2 0.0
27/05:30am 18.0 16.7 11.3 65 3.7 ESE 9 13 5 7 1021.5 1020.7 0.0
27/05:00am 18.8 17.1 11.1 61 4.2 ESE 11 13 6 7 1021.1 1020.3 0.0
27/04:30am 18.0 16.3 11.3 65 3.7 SE 11 15 6 8 1020.9 1020.1 0.0
27/04:00am 19.4 18.4 10.9 58 4.7 ESE 7 11 4 6 1020.6 1019.8 0.0
27/03:30am 18.5 16.4 11.3 63 4.0 SSE 13 15 7 8 1020.3 1019.5 0.0
27/03:00am 18.5 16.5 11.6 64 3.8 SSE 13 17 7 9 1020.2 1019.4 0.0
27/02:30am 18.5 16.2 11.8 65 3.7 SSE 15 17 8 9 1020.2 1019.4 0.0
27/02:00am 18.9 16.6 11.9 64 3.9 SSE 15 17 8 9 1020.1 1019.3 0.0
27/01:30am 19.6 17.7 11.9 61 4.3 SSE 13 17 7 9 1020.1 1019.3 0.0
27/01:00am 20.4 18.1 11.9 58 4.8 SSE 15 17 8 9 1020.0 1019.2 0.0
27/12:30am 20.6 18.3 11.8 57 4.9 SSE 15 19 8 10 1019.9 1019.1 0.0
27/12:00am 20.6 17.8 11.5 56 5.1 SSE 17 20 9 11 1019.7 1018.9 0.0
 
Date/Time
EDT
Temp
°C
App
Temp
°C
Dew
Point
°C
Rel
Hum
%
Delta-T
°C
Wind Press
QNH
hPa
Press
MSL
hPa
Rain since
9am
mm
Dir  Spd
km/h
Gust
km/h
Spd
kts
Gust
kts
26/11:30pm 21.2 17.8 10.4 50 5.9 SSE 19 22 10 12 1019.7 1018.9 0.0
26/11:00pm 19.1 19.0 9.6 54 5.1 CALM 0 0 0 0 1019.7 1018.9 0.0
26/10:30pm 20.0 19.9 9.6 51 5.6 CALM 0 0 0 0 1019.7 1018.9 0.0
26/10:00pm 20.6 20.5 9.5 49 6.0 CALM 0 0 0 0 1019.6 1018.8 0.0
26/09:30pm 21.9 21.9 9.8 46 6.6 CALM 0 0 0 0 1019.5 1018.7 0.0
26/09:00pm 22.8 22.4 9.9 44 7.1 E 2 6 1 3 1019.1 1018.3 0.0
26/08:30pm 24.9 24.0 9.2 37 8.6 ESE 4 6 2 3 1018.7 1017.9 0.0
26/08:00pm 27.5 26.0 9.3 32 10.1 E 7 9 4 5 1018.4 1017.6 0.0
26/07:30pm 28.7 26.8 8.9 29 11.0 E 9 15 5 8 1018.3 1017.5 0.0
26/07:00pm 29.3 27.9 9.4 29 11.2 ESE 7 15 4 8 1018.0 1017.2 0.0
26/06:30pm 29.1 27.3 9.3 29 11.1 N 9 15 5 8 1017.9 1017.0 0.0
26/06:00pm 29.8 29.7 9.3 28 11.5 CALM 0 9 0 5 1017.8 1016.9 0.0
26/05:30pm 29.5 27.0 9.6 29 11.2 NE 13 20 7 11 1017.7 1016.8 0.0
26/05:00pm 29.4 27.0 10.0 30 11.0 NE 13 19 7 10 1017.8 1016.9 0.0
26/04:30pm 29.6 27.8 10.7 31 10.9 ENE 11 20 6 11 1018.0 1017.2 0.0
26/04:00pm 29.0 28.0 11.1 33 10.3 NE 7 15 4 8 1018.2 1017.4 0.0
26/03:30pm 28.8 26.3 10.9 33 10.3 E 15 26 8 14 1018.5 1017.7 0.0
26/03:00pm 28.4 25.6 11.5 35 9.8 ENE 17 24 9 13 1018.9 1018.1 0.0
26/02:30pm 28.3 26.3 11.4 35 9.8 ENE 13 28 7 15 1019.2 1018.4 0.0
26/02:00pm 27.3 25.7 11.7 37 9.0 ENE 11 26 6 14 1019.6 1018.8 0.0
26/01:30pm 27.5 25.6 11.9 38 9.1 E 13 28 7 15 1019.8 1019.0 0.0
26/01:00pm 25.7 22.7 11.8 42 8.0 NE 19 33 10 18 1020.1 1019.3 0.0
26/12:30pm 25.4 22.4 11.9 43 7.8 NE 19 28 10 15 1020.5 1019.7 0.0
26/12:00pm 24.6 20.8 11.2 43 7.6 NE 22 32 12 17 1020.6 1019.8 0.0
26/11:30am 24.7 20.8 12.0 45 7.3 ENE 24 35 13 19 1020.7 1019.9 0.0
26/11:00am 23.2 18.7 11.3 47 6.7 NE 26 39 14 21 1021.0 1020.2 0.0
26/10:30am 22.7 18.6 11.4 49 6.4 NE 24 32 13 17 1021.2 1020.4 0.0
26/10:00am 21.6 18.5 11.6 53 5.6 ENE 19 28 10 15 1021.2 1020.4 0.0
26/09:30am 20.0 18.4 11.5 58 4.7 E 11 19 6 10 1021.2 1020.4 0.0
26/09:00am 18.8 17.1 11.1 61 4.2 ESE 11 17 6 9 1020.9 1020.1 0.0
26/08:30am 17.3 15.6 11.1 67 3.4 SE 11 17 6 9 1020.8 1020.0 0.0
26/08:00am 15.7 13.6 11.1 74 2.5 SE 13 19 7 10 1020.5 1019.7 0.0
26/07:30am 14.4 11.4 10.8 79 1.9 SSE 17 20 9 11 1020.2 1019.4 0.0
26/07:00am 14.0 11.0 10.8 81 1.7 SSE 17 22 9 12 1019.7 1018.9 0.0
26/06:30am 13.7 10.7 10.7 82 1.6 SSE 17 22 9 12 1019.2 1018.4 0.0
26/06:00am 14.1 11.4 10.5 79 1.9 ESE 15 22 8 12 1018.6 1017.8 0.0
26/05:30am 14.1 11.8 10.5 79 1.9 SE 13 20 7 11 1018.5 1017.7 0.0
26/05:00am 14.2 11.2 10.6 79 1.9 SE 17 20 9 11 1018.6 1017.8 0.0
26/04:30am 14.4 10.9 10.8 79 1.9 SSE 20 30 11 16 1018.4 1017.6 0.0
26/04:00am 14.5 10.6 10.9 79 1.9 SSE 22 30 12 16 1018.4 1017.6 0.0
26/03:30am 14.4 10.9 10.8 79 1.9 SSE 20 26 11 14 1018.3 1017.5 0.0
26/03:00am 14.5 10.6 10.7 78 2.0 SSE 22 30 12 16 1018.6 1017.8 0.0
26/02:30am 14.6 11.1 10.8 78 2.0 SSE 20 28 11 15 1018.6 1017.8 0.0
26/02:00am 14.5 11.9 10.7 78 2.0 SSE 15 22 8 12 1018.8 1018.0 0.0
26/01:30am 14.5 11.5 10.5 77 2.1 SSE 17 24 9 13 1019.1 1018.3 0.0
26/01:00am 14.6 11.6 10.6 77 2.1 SSE 17 28 9 15 1019.2 1018.4 0.0
26/12:30am 14.5 11.4 10.3 76 2.2 SSE 17 24 9 13 1019.2 1018.4 0.0
26/12:00am 14.2 12.1 9.8 75 2.3 S 11 20 6 11 1019.6 1018.8 0.0
 
Date/Time
EDT
Temp
°C
App
Temp
°C
Dew
Point
°C
Rel
Hum
%
Delta-T
°C
Wind Press
QNH
hPa
Press
MSL
hPa
Rain since
9am
mm
Dir  Spd
km/h
Gust
km/h
Spd
kts
Gust
kts
25/11:30pm 14.1 10.7 9.1 72 2.6 SSE 17 24 9 13 1019.5 1018.7 0.0
25/11:00pm 14.5 10.6 8.7 68 3.0 S 19 24 10 13 1019.8 1019.0 0.0
25/10:30pm 14.8 11.2 8.3 65 3.3 S 17 26 9 14 1020.0 1019.2 0.0
25/10:00pm 15.6 12.3 8.1 61 3.8 S 15 22 8 12 1020.2 1019.4 0.0
25/09:30pm 16.2 12.1 7.7 57 4.3 S 19 26 10 14 1020.0 1019.2 0.0
25/09:00pm 17.2 12.8 7.3 52 5.0 S 20 28 11 15 1019.7 1018.9 0.0
25/08:30pm 17.9 14.2 6.4 47 5.7 S 15 28 8 15 1019.4 1018.6 0.0
25/08:00pm 18.7 13.8 5.2 41 6.6 S 20 30 11 16 1019.4 1018.6 0.0
25/07:30pm 20.0 14.1 4.1 35 7.7 S 24 33 13 18 1019.5 1018.7 0.0
25/07:00pm 21.3 15.4 4.0 32 8.4 S 24 32 13 17 1019.4 1018.6 0.0
25/06:30pm 22.4 16.5 2.0 26 9.7 S 22 35 12 19 1019.1 1018.3 0.0
25/06:00pm 23.2 17.0 2.1 25 10.0 SSE 24 32 13 17 1019.0 1018.2 0.0
25/05:30pm 23.8 18.4 2.6 25 10.3 SSE 20 33 11 18 1018.9 1018.1 0.0
25/05:00pm 23.8 18.5 3.2 26 10.1 S 20 41 11 22 1018.9 1018.1 0.0
25/04:30pm 23.9 19.6 3.2 26 10.1 SSW 15 24 8 13 1019.0 1018.2 0.0
25/04:00pm 23.3 18.5 2.7 26 9.9 SSE 17 24 9 13 1019.1 1018.3 0.0
25/03:30pm 23.5 18.3 3.4 27 9.8 S 20 33 11 18 1019.4 1018.6 0.0
25/03:00pm 22.5 17.8 5.9 34 8.4 S 20 35 11 19 1019.7 1018.9 0.0
25/02:30pm 22.9 18.3 5.8 33 8.7 S 19 33 10 18 1020.4 1019.6 0.0
25/02:00pm 22.6 18.1 6.8 36 8.2 SSE 20 35 11 19 1020.7 1019.9 0.0
25/01:30pm 21.5 16.7 5.4 35 8.1 SSE 20 32 11 17 1020.8 1020.0 0.0
25/01:00pm 21.1 16.3 5.5 36 7.8 S 20 32 11 17 1020.9 1020.1 0.0
25/12:30pm 20.5 15.6 5.3 37 7.6 SSE 20 32 11 17 1021.4 1020.6 0.0
25/12:00pm 19.7 14.2 6.1 41 6.8 SSE 24 48 13 26 1021.9 1021.0 0.0
25/11:30am 18.4 13.2 5.6 43 6.3 SSE 22 35 12 19 1022.3 1021.5 0.0
25/11:00am 18.3 12.9 6.2 45 6.0 S 24 35 13 19 1022.3 1021.5 0.0
25/10:30am 17.8 12.4 6.3 47 5.7 SE 24 37 13 20 1022.6 1021.8 0.0
25/10:00am 17.0 10.9 6.5 50 5.2 SSE 28 39 15 21 1022.5 1021.7 0.0
25/09:30am 15.8 9.7 6.8 55 4.5 SSE 28 39 15 21 1022.4 1021.6 0.0
25/09:00am 14.9 10.0 7.0 59 3.9 SSE 22 30 12 16 1022.3 1021.5 0.0
25/08:30am 13.9 9.0 7.0 63 3.4 SSE 22 30 12 16 1022.3 1021.5 0.0
25/08:00am 12.9 9.1 7.4 69 2.7 S 17 22 9 12 1022.3 1021.5 0.0
25/07:30am 12.2 9.2 7.7 74 2.2 S 13 20 7 11 1021.9 1021.0 0.0
25/07:00am 12.3 9.4 8.0 75 2.1 S 13 19 7 10 1021.4 1020.6 0.0
25/06:30am 12.4 9.2 8.3 76 2.0 S 15 24 8 13 1021.3 1020.5 0.0
25/06:00am 12.7 8.8 8.6 76 2.1 SSE 19 30 10 16 1020.9 1020.1 0.0
25/05:30am 13.3 9.3 9.2 76 2.1 S 20 33 11 18 1020.9 1020.1 0.0
25/05:00am 13.3 9.4 9.4 77 2.0 S 20 26 11 14 1020.8 1020.0 0.0
25/04:30am 13.5 9.2 9.2 75 2.2 S 22 33 12 18 1020.9 1020.1 0.0
25/04:00am 13.7 9.7 9.2 74 2.3 S 20 26 11 14 1021.0 1020.2 0.0
25/03:30am 13.8 9.7 8.8 72 2.5 S 20 32 11 17 1021.1 1020.3 0.0
25/03:00am 13.5 9.6 8.8 73 2.4 S 19 32 10 17 1021.3 1020.5 0.0
25/02:30am 13.7 10.1 8.3 70 2.7 S 17 26 9 14 1021.6 1020.8 0.0
25/02:00am 13.8 10.4 7.8 67 3.0 S 15 22 8 12 1022.2 1021.3 0.0
25/01:30am 13.8 10.4 7.6 66 3.1 S 15 24 8 13 1022.4 1021.6 0.0
25/01:00am 13.5 10.0 7.3 66 3.0 S 15 22 8 12 1022.6 1021.8 0.0
25/12:30am 13.9 10.1 7.7 66 3.1 S 17 26 9 14 1022.8 1022.0 0.0
25/12:00am 14.1 10.3 7.4 64 3.3 S 17 24 9 13 1022.9 1022.1 0.0
 
Date/Time
EDT
Temp
°C
App
Temp
°C
Dew
Point
°C
Rel
Hum
%
Delta-T
°C
Wind Press
QNH
hPa
Press
MSL
hPa
Rain since
9am
mm
Dir  Spd
km/h
Gust
km/h
Spd
kts
Gust
kts
24/11:30pm 14.4 10.5 7.2 62 3.6 S 17 26 9 14 1023.1 1022.3 0.0
24/11:00pm 14.6 10.1 6.9 60 3.8 S 20 35 11 19 1023.4 1022.6 0.0
24/10:30pm 15.1 9.9 7.2 59 3.9 S 24 33 13 18 1023.5 1022.7 0.0
24/10:00pm 15.3 10.2 7.6 60 3.9 S 24 33 13 18 1023.5 1022.7 0.0
24/09:30pm 15.5 10.8 7.8 60 3.9 S 22 30 12 16 1023.5 1022.7 0.0
24/09:00pm 15.9 10.9 7.9 59 4.0 SSE 24 33 13 18 1023.4 1022.6 0.0
24/08:30pm 16.5 11.5 8.2 58 4.3 SSE 24 39 13 21 1023.0 1022.2 0.0
24/08:00pm 17.4 11.3 8.3 55 4.7 SSE 30 43 16 23 1022.6 1021.8 0.0
24/07:30pm 18.8 12.3 8.2 50 5.5 SSE 32 43 17 23 1022.3 1021.5 0.0
24/07:00pm 20.0 13.8 7.7 45 6.4 SSE 30 44 16 24 1022.0 1021.1 0.0
24/06:30pm 21.3 15.0 7.5 41 7.2 SSE 30 43 16 23 1021.9 1021.0 0.0
24/06:00pm 22.2 15.9 7.2 38 7.8 SSE 30 41 16 22 1021.5 1020.7 0.0
24/05:30pm 23.4 17.8 7.1 35 8.5 SSE 26 33 14 18 1021.3 1020.5 0.0
24/05:00pm 23.5 18.3 7.2 35 8.5 SSE 24 39 13 21 1021.2 1020.4 0.0
24/04:30pm 24.3 19.0 6.6 32 9.2 SSE 24 33 13 18 1021.3 1020.5 0.0
24/04:00pm 24.5 18.7 6.3 31 9.4 SE 26 39 14 21 1021.2 1020.4 0.0
24/03:30pm 24.5 18.4 6.7 32 9.3 S 28 37 15 20 1021.3 1020.5 0.0
24/03:00pm 24.6 19.7 6.8 32 9.3 SSE 22 35 12 19 1021.7 1020.9 0.0
24/02:30pm 24.3 19.8 7.0 33 9.1 SSE 20 32 11 17 1022.1 1021.2 0.0
24/02:00pm 23.8 18.3 7.4 35 8.6 SSE 26 37 14 20 1022.2 1021.3 0.0
24/01:30pm 22.9 18.5 7.4 37 8.1 SSE 20 33 11 18 1022.4 1021.6 0.0
24/01:00pm 21.9 18.0 7.3 39 7.6 SSE 17 35 9 19 1022.5 1021.7 0.0
24/12:30pm 22.0 17.9 7.8 40 7.5 S 19 32 10 17 1022.8 1022.0 0.0
24/12:00pm 21.2 16.8 7.4 41 7.1 SSW 20 30 11 16 1023.1 1022.3 0.0
24/11:30am 20.5 16.5 8.2 45 6.5 S 19 28 10 15 1023.2 1022.4 0.0
24/11:00am 19.9 16.1 9.2 50 5.7 SSW 19 30 10 16 1023.3 1022.5 0.0

Other Formats:

Comma delimited format used in spreadsheet applications
http://www.bom.gov.au/fwo/IDV60801/IDV60801.94855.axf

JavaScript Object Notation format (JSON) in row-major order
http://www.bom.gov.au/fwo/IDV60801/IDV60801.94855.json